createdAt,value
2018-02-27T00:00:00.179Z,-2.53
2018-02-27T00:00:40.672Z,-2.5
2018-02-27T00:01:21.183Z,-2.58
2018-02-27T00:02:01.693Z,-2.49
2018-02-27T00:02:42.210Z,-2.56
2018-02-27T00:03:22.724Z,-2.48
2018-02-27T00:04:03.234Z,-2.5
2018-02-27T00:04:43.853Z,-2.4
2018-02-27T00:05:24.428Z,-2.43
2018-02-27T00:06:04.946Z,-2.34
2018-02-27T00:06:45.458Z,-2.49
2018-02-27T00:07:25.970Z,-2.53
2018-02-27T00:08:06.487Z,-2.48
2018-02-27T00:08:46.995Z,-2.48
2018-02-27T00:09:27.534Z,-2.63
2018-02-27T00:10:08.041Z,-2.56
2018-02-27T00:10:48.597Z,-2.56
2018-02-27T00:11:29.188Z,-2.56
2018-02-27T00:12:09.772Z,-2.46
2018-02-27T00:12:50.267Z,-2.56
2018-02-27T00:13:30.750Z,-2.5
2018-02-27T00:14:11.271Z,-2.66
2018-02-27T00:14:51.786Z,-2.64
2018-02-27T00:15:32.304Z,-2.67
2018-02-27T00:16:12.822Z,-2.58
2018-02-27T00:16:53.339Z,-2.73
2018-02-27T00:17:33.832Z,-2.61
2018-02-27T00:18:14.393Z,-2.64
2018-02-27T00:18:54.902Z,-2.63
2018-02-27T00:19:35.381Z,-2.66
2018-02-27T00:20:15.909Z,-2.88
2018-02-27T00:20:56.421Z,-2.85
2018-02-27T00:21:36.934Z,-2.74
2018-02-27T00:22:17.448Z,-2.86
2018-02-27T00:22:57.976Z,-2.91
2018-02-27T00:23:38.484Z,-2.89
2018-02-27T00:24:19.012Z,-2.99
2018-02-27T00:24:59.819Z,-2.88
2018-02-27T00:25:40.037Z,-2.88
2018-02-27T00:26:20.548Z,-2.88
2018-02-27T00:27:01.057Z,-2.92
2018-02-27T00:27:41.570Z,-2.88
2018-02-27T00:28:22.115Z,-2.86
2018-02-27T00:29:02.657Z,-2.91
2018-02-27T00:29:43.123Z,-2.74
2018-02-27T00:30:23.640Z,-2.74
2018-02-27T00:31:04.136Z,-2.71
2018-02-27T00:31:44.660Z,-2.77
2018-02-27T00:32:25.348Z,-2.68
2018-02-27T00:33:05.875Z,-2.64
2018-02-27T00:33:46.387Z,-2.7
2018-02-27T00:34:26.895Z,-2.7
2018-02-27T00:35:07.417Z,-2.67
2018-02-27T00:35:47.938Z,-2.67
2018-02-27T00:36:28.443Z,-2.74
2018-02-27T00:37:08.978Z,-2.74
2018-02-27T00:37:49.511Z,-2.66
2018-02-27T00:38:30.076Z,-2.67
2018-02-27T00:39:10.580Z,-2.74
2018-02-27T00:39:51.051Z,-2.66
2018-02-27T00:40:31.558Z,-2.64
2018-02-27T00:41:12.063Z,-2.81
2018-02-27T00:41:52.573Z,-2.79
2018-02-27T00:42:33.113Z,-2.61
2018-02-27T00:43:13.613Z,-2.73
2018-02-27T00:43:54.115Z,-2.7
2018-02-27T00:44:34.628Z,-2.78
2018-02-27T00:45:15.259Z,-2.67
2018-02-27T00:45:55.792Z,-2.68
2018-02-27T00:46:36.299Z,-2.68
2018-02-27T00:47:16.809Z,-2.63
2018-02-27T00:47:57.342Z,-2.6
2018-02-27T00:48:37.859Z,-2.66
2018-02-27T00:49:18.365Z,-2.63
2018-02-27T00:49:58.896Z,-2.66
2018-02-27T00:50:39.401Z,-2.7
2018-02-27T00:51:19.955Z,-2.7
2018-02-27T00:52:00.500Z,-2.58
2018-02-27T00:52:40.985Z,-2.67
2018-02-27T00:53:21.532Z,-2.63
2018-02-27T00:54:02.092Z,-2.53
2018-02-27T00:54:42.565Z,-2.56
2018-02-27T00:55:23.082Z,-2.61
2018-02-27T00:56:03.593Z,-2.66
2018-02-27T00:56:44.099Z,-2.77
2018-02-27T00:57:24.606Z,-2.71
2018-02-27T00:58:05.112Z,-2.73
2018-02-27T00:58:45.621Z,-2.71
2018-02-27T00:59:26.152Z,-3
2018-02-27T01:00:06.664Z,-2.99
2018-02-27T01:00:47.169Z,-2.91
2018-02-27T01:01:27.680Z,-2.89
2018-02-27T01:02:08.181Z,-2.86
2018-02-27T01:02:48.688Z,-2.81
2018-02-27T01:03:29.196Z,-2.85
2018-02-27T01:04:09.712Z,-2.91
2018-02-27T01:04:50.269Z,-3.05
2018-02-27T01:05:30.769Z,-3.12
2018-02-27T01:06:11.271Z,-3.14
2018-02-27T01:06:51.785Z,-3.2
2018-02-27T01:07:32.312Z,-3.23
2018-02-27T01:08:12.820Z,-3.07
2018-02-27T01:08:53.335Z,-3.06
2018-02-27T01:09:33.855Z,-3.14
2018-02-27T01:10:14.393Z,-2.97
2018-02-27T01:10:55.001Z,-3.03
2018-02-27T01:11:35.525Z,-3.03
2018-02-27T01:12:16.137Z,-2.99
2018-02-27T01:12:56.676Z,-2.99
2018-02-27T01:13:37.190Z,-2.89
2018-02-27T01:14:17.782Z,-2.79
2018-02-27T01:14:58.290Z,-2.86
2018-02-27T01:15:38.801Z,-2.81
2018-02-27T01:16:19.311Z,-2.99
2018-02-27T01:16:59.817Z,-2.81
2018-02-27T01:17:40.342Z,-2.85
2018-02-27T01:18:20.859Z,-2.86
2018-02-27T01:19:01.427Z,-2.88
2018-02-27T01:19:41.868Z,-3.03
2018-02-27T01:20:22.391Z,-2.99
2018-02-27T01:21:02.927Z,-2.97
2018-02-27T01:21:43.441Z,-2.94
2018-02-27T01:22:23.981Z,-2.86
2018-02-27T01:23:04.482Z,-2.84
2018-02-27T01:23:44.979Z,-2.73
2018-02-27T01:24:25.493Z,-2.73
2018-02-27T01:25:06.002Z,-2.73
2018-02-27T01:25:46.504Z,-2.66
2018-02-27T01:26:27.022Z,-2.73
2018-02-27T01:27:07.572Z,-2.78
2018-02-27T01:27:48.117Z,-2.73
2018-02-27T01:28:28.594Z,-2.77
2018-02-27T01:29:09.116Z,-2.96
2018-02-27T01:29:49.616Z,-2.92
2018-02-27T01:30:30.120Z,-2.92
2018-02-27T01:31:10.634Z,-2.99
2018-02-27T01:31:51.140Z,-2.82
2018-02-27T01:32:31.662Z,-2.88
2018-02-27T01:33:12.218Z,-2.88
2018-02-27T01:33:52.791Z,-2.82
2018-02-27T01:34:33.262Z,-2.94
2018-02-27T01:35:13.813Z,-2.91
2018-02-27T01:35:54.336Z,-2.89
2018-02-27T01:36:34.838Z,-2.86
2018-02-27T01:37:15.346Z,-2.86
2018-02-27T01:37:55.857Z,-3
2018-02-27T01:38:36.360Z,-2.99
2018-02-27T01:39:16.861Z,-2.91
2018-02-27T01:39:57.371Z,-2.81
2018-02-27T01:40:37.885Z,-2.97
2018-02-27T01:41:18.397Z,-2.88
2018-02-27T01:41:58.897Z,-2.77
2018-02-27T01:42:39.439Z,-2.84
2018-02-27T01:43:19.917Z,-2.92
2018-02-27T01:44:00.417Z,-2.92
2018-02-27T01:44:40.931Z,-3
2018-02-27T01:45:21.444Z,-2.85
2018-02-27T01:46:01.946Z,-2.88
2018-02-27T01:46:42.462Z,-2.86
2018-02-27T01:47:22.985Z,-2.86
2018-02-27T01:48:03.504Z,-2.94
2018-02-27T01:48:44.004Z,-2.97
2018-02-27T01:49:24.529Z,-3
2018-02-27T01:50:05.053Z,-2.86
2018-02-27T01:50:45.561Z,-2.79
2018-02-27T01:51:26.082Z,-2.77
2018-02-27T01:52:06.594Z,-2.73
2018-02-27T01:52:47.101Z,-2.68
2018-02-27T01:53:27.605Z,-2.68
2018-02-27T01:54:08.166Z,-2.68
2018-02-27T01:54:48.669Z,-2.73
2018-02-27T01:55:29.184Z,-2.85
2018-02-27T01:56:09.722Z,-2.73
2018-02-27T01:56:50.209Z,-2.74
2018-02-27T01:57:30.719Z,-2.7
2018-02-27T01:58:11.211Z,-2.74
2018-02-27T01:58:51.722Z,-2.74
2018-02-27T01:59:32.236Z,-2.67
2018-02-27T02:00:12.742Z,-2.66
2018-02-27T02:00:53.235Z,-2.74
2018-02-27T02:01:33.827Z,-2.82
2018-02-27T02:02:14.334Z,-2.68
2018-02-27T02:02:54.853Z,-2.78
2018-02-27T02:03:35.375Z,-2.66
2018-02-27T02:04:15.897Z,-2.7
2018-02-27T02:04:56.412Z,-2.71
2018-02-27T02:05:36.925Z,-2.82
2018-02-27T02:06:17.425Z,-2.89
2018-02-27T02:06:57.933Z,-2.99
2018-02-27T02:07:38.447Z,-3
2018-02-27T02:08:18.984Z,-3.09
2018-02-27T02:08:59.504Z,-3.06
2018-02-27T02:09:40.042Z,-3.15
2018-02-27T02:10:20.549Z,-3.07
2018-02-27T02:11:01.080Z,-3.24
2018-02-27T02:11:41.588Z,-3.09
2018-02-27T02:12:22.232Z,-3.12
2018-02-27T02:13:02.632Z,-3
2018-02-27T02:13:43.203Z,-2.94
2018-02-27T02:14:23.720Z,-2.89
2018-02-27T02:15:04.233Z,-2.96
2018-02-27T02:15:44.744Z,-2.99
2018-02-27T02:16:25.248Z,-2.89
2018-02-27T02:17:05.808Z,-2.78
2018-02-27T02:17:46.331Z,-2.73
2018-02-27T02:18:26.841Z,-2.74
2018-02-27T02:19:07.353Z,-2.66
2018-02-27T02:19:47.880Z,-2.67
2018-02-27T02:20:28.388Z,-2.77
2018-02-27T02:21:08.889Z,-2.73
2018-02-27T02:21:49.404Z,-2.85
2018-02-27T02:22:29.908Z,-2.84
2018-02-27T02:23:10.430Z,-2.85
2018-02-27T02:23:50.936Z,-2.81
2018-02-27T02:24:31.498Z,-3.07
2018-02-27T02:25:12.002Z,-3.36
2018-02-27T02:25:52.504Z,-3.2
2018-02-27T02:26:33.017Z,-3.09
2018-02-27T02:27:13.538Z,-2.99
2018-02-27T02:27:54.052Z,-2.89
2018-02-27T02:28:34.558Z,-2.84
2018-02-27T02:29:15.056Z,-2.78
2018-02-27T02:29:55.564Z,-2.84
2018-02-27T02:32:08.828Z,-2.68
2018-02-27T02:32:49.340Z,-2.84
2018-02-27T02:33:29.845Z,-2.89
2018-02-27T02:34:10.363Z,-2.86
2018-02-27T02:34:50.869Z,-2.73
2018-02-27T02:35:31.402Z,-2.7
2018-02-27T02:36:11.904Z,-2.81
2018-02-27T02:36:52.414Z,-2.68
2018-02-27T02:37:32.924Z,-2.78
2018-02-27T02:38:13.441Z,-2.79
2018-02-27T02:38:53.952Z,-2.63
2018-02-27T02:39:34.460Z,-2.63
2018-02-27T02:40:14.971Z,-2.63
2018-02-27T02:40:55.491Z,-2.78
2018-02-27T02:41:35.991Z,-2.89
2018-02-27T02:42:16.492Z,-2.92
2018-02-27T02:42:56.998Z,-2.96
2018-02-27T02:43:37.509Z,-3.06
2018-02-27T02:44:18.007Z,-2.94
2018-02-27T02:44:58.512Z,-2.88
2018-02-27T02:45:39.018Z,-2.78
2018-02-27T02:46:19.526Z,-2.66
2018-02-27T02:47:00.048Z,-2.77
2018-02-27T02:47:40.556Z,-2.79
2018-02-27T02:48:21.069Z,-2.61
2018-02-27T02:49:01.578Z,-2.61
2018-02-27T02:49:42.092Z,-2.64
2018-02-27T02:50:22.610Z,-2.63
2018-02-27T02:51:03.146Z,-2.66
2018-02-27T02:51:43.640Z,-2.66
2018-02-27T02:52:24.136Z,-2.63
2018-02-27T02:53:04.646Z,-2.52
2018-02-27T02:53:45.156Z,-2.55
2018-02-27T02:54:25.664Z,-2.55
2018-02-27T02:55:06.177Z,-2.49
2018-02-27T02:55:46.700Z,-2.43
2018-02-27T02:56:27.185Z,-2.5
2018-02-27T02:57:07.688Z,-2.49
2018-02-27T02:57:48.194Z,-2.52
2018-02-27T02:58:28.698Z,-2.42
2018-02-27T02:59:09.216Z,-2.45
2018-02-27T02:59:49.724Z,-2.35
2018-02-27T03:00:30.228Z,-2.39
2018-02-27T03:01:10.738Z,-2.49
2018-02-27T03:01:51.249Z,-2.45
2018-02-27T03:02:31.749Z,-2.49
2018-02-27T03:03:12.300Z,-2.55
2018-02-27T03:03:52.787Z,-2.48
2018-02-27T03:04:33.296Z,-2.49
2018-02-27T03:05:13.803Z,-2.52
2018-02-27T03:05:54.305Z,-2.49
2018-02-27T03:06:34.818Z,-2.46
2018-02-27T03:07:15.322Z,-2.6
2018-02-27T03:07:55.828Z,-2.63
2018-02-27T03:08:36.360Z,-2.56
2018-02-27T03:09:16.868Z,-2.67
2018-02-27T03:09:57.379Z,-2.71
2018-02-27T03:10:37.880Z,-2.71
2018-02-27T03:11:18.394Z,-2.73
2018-02-27T03:11:58.899Z,-2.96
2018-02-27T03:12:39.410Z,-3.03
2018-02-27T03:13:19.905Z,-3.03
2018-02-27T03:14:00.432Z,-2.97
2018-02-27T03:14:40.943Z,-3.02
2018-02-27T03:15:21.464Z,-3.14
2018-02-27T03:16:01.955Z,-3.03
2018-02-27T03:16:42.480Z,-2.91
2018-02-27T03:17:22.981Z,-2.86
2018-02-27T03:18:03.505Z,-2.97
2018-02-27T03:18:44.019Z,-2.97
2018-02-27T03:19:24.556Z,-2.88
2018-02-27T03:20:05.053Z,-2.74
2018-02-27T03:20:45.564Z,-2.77
2018-02-27T03:21:26.073Z,-2.99
2018-02-27T03:22:06.586Z,-3.15
2018-02-27T03:22:47.105Z,-3.15
2018-02-27T03:23:27.619Z,-2.96
2018-02-27T03:24:08.130Z,-3.03
2018-02-27T03:24:48.632Z,-3.02
2018-02-27T03:25:29.132Z,-2.97
2018-02-27T03:26:09.644Z,-2.96
2018-02-27T03:26:50.158Z,-2.85
2018-02-27T03:27:30.661Z,-2.89
2018-02-27T03:28:11.166Z,-2.88
2018-02-27T03:28:51.680Z,-3.02
2018-02-27T03:29:32.189Z,-2.86
2018-02-27T03:30:13.539Z,-2.84
2018-02-27T03:30:53.206Z,-2.84
2018-02-27T03:31:33.725Z,-2.91
2018-02-27T03:32:14.213Z,-3.03
2018-02-27T03:32:54.726Z,-3.03
2018-02-27T03:33:35.228Z,-3.2
2018-02-27T03:34:15.730Z,-3.15
2018-02-27T03:34:56.268Z,-3.23
2018-02-27T03:35:36.755Z,-3.23
2018-02-27T03:36:17.251Z,-3.27
2018-02-27T03:36:57.825Z,-3.24
2018-02-27T03:37:38.331Z,-3.28
2018-02-27T03:38:18.848Z,-3.33
2018-02-27T03:38:59.355Z,-3.25
2018-02-27T03:39:39.867Z,-3.12
2018-02-27T03:40:20.397Z,-2.96
2018-02-27T03:41:00.904Z,-3
2018-02-27T03:41:42.264Z,-2.97
2018-02-27T03:42:22.771Z,-2.89
2018-02-27T03:43:03.269Z,-2.88
2018-02-27T03:43:43.778Z,-2.86
2018-02-27T03:44:24.298Z,-2.88
2018-02-27T03:45:04.806Z,-2.88
2018-02-27T03:45:45.305Z,-2.73
2018-02-27T03:46:25.819Z,-2.77
2018-02-27T03:47:06.337Z,-2.82
2018-02-27T03:47:46.840Z,-2.85
2018-02-27T03:48:27.356Z,-2.89
2018-02-27T03:49:07.868Z,-2.77
2018-02-27T03:49:48.374Z,-2.84
2018-02-27T03:50:28.889Z,-2.73
2018-02-27T03:51:09.400Z,-2.89
2018-02-27T03:51:49.929Z,-2.88
2018-02-27T03:52:30.435Z,-2.88
2018-02-27T03:53:10.955Z,-2.88
2018-02-27T03:53:51.458Z,-2.96
2018-02-27T03:54:31.956Z,-3.02
2018-02-27T03:55:12.476Z,-2.99
2018-02-27T03:55:52.994Z,-3.2
2018-02-27T03:56:33.498Z,-3.15
2018-02-27T03:57:14.009Z,-3.14
2018-02-27T03:57:54.531Z,-3.17
2018-02-27T03:58:35.068Z,-3.21
2018-02-27T03:59:15.553Z,-3.09
2018-02-27T03:59:56.062Z,-2.92
2018-02-27T04:00:36.566Z,-2.89
2018-02-27T04:01:17.079Z,-2.85
2018-02-27T04:01:57.604Z,-2.88
2018-02-27T04:02:38.118Z,-2.92
2018-02-27T04:03:18.636Z,-2.96
2018-02-27T04:03:59.152Z,-3.09
2018-02-27T04:04:39.668Z,-3.15
2018-02-27T04:05:20.175Z,-3.17
2018-02-27T04:06:00.697Z,-3.17
2018-02-27T04:06:41.248Z,-3.07
2018-02-27T04:07:21.766Z,-3.2
2018-02-27T04:08:02.275Z,-3.14
2018-02-27T04:08:42.771Z,-3.27
2018-02-27T04:09:23.282Z,-3.12
2018-02-27T04:10:03.795Z,-3.23
2018-02-27T04:10:44.306Z,-3.35
2018-02-27T04:11:24.883Z,-3.3
2018-02-27T04:12:05.394Z,-3.49
2018-02-27T04:12:45.899Z,-3.35
2018-02-27T04:13:26.400Z,-3.57
2018-02-27T04:14:06.922Z,-3.41
2018-02-27T04:14:47.434Z,-3.35
2018-02-27T04:15:27.953Z,-3.31
2018-02-27T04:16:08.462Z,-3.25
2018-02-27T04:16:48.967Z,-3.33
2018-02-27T04:17:29.475Z,-3.36
2018-02-27T04:18:09.976Z,-3.21
2018-02-27T04:18:50.495Z,-3.18
2018-02-27T04:19:30.994Z,-3.12
2018-02-27T04:20:11.491Z,-3.18
2018-02-27T04:20:51.998Z,-3.12
2018-02-27T04:21:32.525Z,-3.18
2018-02-27T04:22:13.033Z,-3.1
2018-02-27T04:22:53.553Z,-3.2
2018-02-27T04:23:34.067Z,-3.12
2018-02-27T04:24:14.594Z,-3.17
2018-02-27T04:24:55.106Z,-3.12
2018-02-27T04:25:35.615Z,-3.06
2018-02-27T04:26:16.128Z,-3.03
2018-02-27T04:26:56.642Z,-2.97
2018-02-27T04:27:37.156Z,-3
2018-02-27T04:28:17.646Z,-3.09
2018-02-27T04:28:58.157Z,-3.1
2018-02-27T04:29:38.681Z,-3
2018-02-27T04:30:19.187Z,-3.03
2018-02-27T04:30:59.708Z,-3.18
2018-02-27T04:31:40.228Z,-3.1
2018-02-27T04:32:20.729Z,-3.17
2018-02-27T04:33:01.243Z,-3.14
2018-02-27T04:33:41.755Z,-3.05
2018-02-27T04:34:22.271Z,-3.02
2018-02-27T04:35:02.775Z,-3.09
2018-02-27T04:35:43.283Z,-3.03
2018-02-27T04:36:23.792Z,-3.07
2018-02-27T04:37:04.289Z,-2.99
2018-02-27T04:37:44.805Z,-2.94
2018-02-27T04:38:25.315Z,-2.86
2018-02-27T04:39:05.821Z,-2.97
2018-02-27T04:39:46.324Z,-3
2018-02-27T04:40:26.913Z,-3.02
2018-02-27T04:41:07.343Z,-3
2018-02-27T04:41:47.854Z,-2.99
2018-02-27T04:42:28.360Z,-3.07
2018-02-27T04:43:08.867Z,-3.21
2018-02-27T04:43:49.374Z,-3.14
2018-02-27T04:44:29.903Z,-3.21
2018-02-27T04:45:10.390Z,-3.1
2018-02-27T04:45:50.889Z,-3.25
2018-02-27T04:46:31.399Z,-3.25
2018-02-27T04:47:11.910Z,-3.24
2018-02-27T04:47:52.433Z,-3.3
2018-02-27T04:48:32.935Z,-3.27
2018-02-27T04:49:13.442Z,-3.28
2018-02-27T04:49:53.957Z,-3.24
2018-02-27T04:50:34.499Z,-3.1
2018-02-27T04:51:15.012Z,-3.2
2018-02-27T04:51:55.520Z,-3.02
2018-02-27T04:52:36.029Z,-3.05
2018-02-27T04:53:16.555Z,-2.99
2018-02-27T04:53:57.077Z,-2.97
2018-02-27T04:54:37.601Z,-2.94
2018-02-27T04:55:18.117Z,-3
2018-02-27T04:55:58.628Z,-3.2
2018-02-27T04:56:39.138Z,-3.27
2018-02-27T04:57:19.643Z,-3.31
2018-02-27T04:58:00.153Z,-3.15
2018-02-27T04:58:40.658Z,-3.06
2018-02-27T04:59:21.164Z,-3.24
2018-02-27T05:00:01.685Z,-3.1
2018-02-27T05:00:42.197Z,-3.12
2018-02-27T05:01:22.703Z,-3.02
2018-02-27T05:02:03.218Z,-3.15
2018-02-27T05:02:43.730Z,-3.14
2018-02-27T05:03:24.239Z,-3.21
2018-02-27T05:04:04.744Z,-3.25
2018-02-27T05:04:45.244Z,-3.23
2018-02-27T05:05:25.739Z,-3.3
2018-02-27T05:06:06.244Z,-3.39
2018-02-27T05:06:46.750Z,-3.33
2018-02-27T05:07:27.254Z,-3.31
2018-02-27T05:08:07.777Z,-3.35
2018-02-27T05:08:48.320Z,-3.23
2018-02-27T05:09:28.836Z,-3.25
2018-02-27T05:10:09.343Z,-3.3
2018-02-27T05:10:49.847Z,-3.33
2018-02-27T05:11:30.361Z,-3.35
2018-02-27T05:12:10.878Z,-3.33
2018-02-27T05:12:51.395Z,-3.33
2018-02-27T05:13:31.894Z,-3.27
2018-02-27T05:14:12.404Z,-3.35
2018-02-27T05:14:52.910Z,-3.36
2018-02-27T05:15:33.430Z,-3.33
2018-02-27T05:16:13.965Z,-3.28
2018-02-27T05:16:54.474Z,-3.31
2018-02-27T05:17:34.985Z,-3.31
2018-02-27T05:18:15.496Z,-3.33
2018-02-27T05:18:56.029Z,-3.28
2018-02-27T05:19:36.523Z,-3.3
2018-02-27T05:20:17.029Z,-3.25
2018-02-27T05:20:57.546Z,-3.35
2018-02-27T05:21:38.050Z,-3.39
2018-02-27T05:22:18.590Z,-3.33
2018-02-27T05:22:59.089Z,-3.3
2018-02-27T05:23:39.603Z,-3.31
2018-02-27T05:24:20.134Z,-3.18
2018-02-27T05:25:00.634Z,-3.18
2018-02-27T05:25:41.156Z,-3.07
2018-02-27T05:26:21.676Z,-3.15
2018-02-27T05:27:02.183Z,-3.15
2018-02-27T05:27:42.699Z,-3.14
2018-02-27T05:28:23.209Z,-3.09
2018-02-27T05:29:03.735Z,-3.06
2018-02-27T05:29:44.252Z,-3.23
2018-02-27T05:30:24.758Z,-3.28
2018-02-27T05:31:05.269Z,-3.28
2018-02-27T05:31:45.782Z,-3.43
2018-02-27T05:32:26.292Z,-3.43
2018-02-27T05:33:06.817Z,-3.52
2018-02-27T05:33:47.330Z,-3.49
2018-02-27T05:34:27.837Z,-3.36
2018-02-27T05:35:08.341Z,-3.56
2018-02-27T05:35:48.850Z,-3.53
2018-02-27T05:36:29.358Z,-3.54
2018-02-27T05:37:10.545Z,-3.43
2018-02-27T05:37:50.371Z,-3.38
2018-02-27T05:38:30.877Z,-3.31
2018-02-27T05:39:11.382Z,-3.49
2018-02-27T05:39:51.899Z,-3.67
2018-02-27T05:40:32.402Z,-3.53
2018-02-27T05:41:12.927Z,-3.48
2018-02-27T05:41:53.443Z,-3.43
2018-02-27T05:42:33.946Z,-3.52
2018-02-27T05:43:14.467Z,-3.53
2018-02-27T05:43:54.996Z,-3.46
2018-02-27T05:44:35.509Z,-3.43
2018-02-27T05:45:16.552Z,-3.36
2018-02-27T05:45:56.525Z,-3.28
2018-02-27T05:46:37.041Z,-3.28
2018-02-27T05:47:17.551Z,-3.3
2018-02-27T05:47:58.064Z,-3.21
2018-02-27T05:48:38.573Z,-3.15
2018-02-27T05:49:19.089Z,-3.15
2018-02-27T05:49:59.595Z,-3.05
2018-02-27T05:50:40.136Z,-2.97
2018-02-27T05:51:20.644Z,-3.24
2018-02-27T05:52:01.153Z,-3.15
2018-02-27T05:52:41.676Z,-3.15
2018-02-27T05:53:22.183Z,-3.31
2018-02-27T05:54:02.709Z,-3.27
2018-02-27T05:54:43.218Z,-3.42
2018-02-27T05:55:23.737Z,-3.31
2018-02-27T05:56:04.259Z,-3.33
2018-02-27T05:56:44.766Z,-3.35
2018-02-27T05:57:25.282Z,-3.48
2018-02-27T05:58:05.805Z,-3.41
2018-02-27T05:58:46.320Z,-3.38
2018-02-27T05:59:26.823Z,-3.31
2018-02-27T06:00:07.340Z,-3.25
2018-02-27T06:00:47.848Z,-3.27
2018-02-27T06:01:28.359Z,-3.31
2018-02-27T06:02:08.911Z,-3.48
2018-02-27T06:02:49.368Z,-3.36
2018-02-27T06:03:29.881Z,-3.3
2018-02-27T06:04:10.402Z,-3.33
2018-02-27T06:04:50.977Z,-3.45
2018-02-27T06:05:31.444Z,-3.48
2018-02-27T06:06:11.956Z,-3.45
2018-02-27T06:06:52.461Z,-3.48
2018-02-27T06:07:32.996Z,-3.56
2018-02-27T06:08:13.493Z,-3.42
2018-02-27T06:08:53.999Z,-3.62
2018-02-27T06:09:34.506Z,-3.57
2018-02-27T06:10:15.035Z,-3.64
2018-02-27T06:10:55.547Z,-3.64
2018-02-27T06:11:36.059Z,-3.64
2018-02-27T06:12:16.562Z,-3.56
2018-02-27T06:12:57.099Z,-3.46
2018-02-27T06:13:37.612Z,-3.42
2018-02-27T06:14:18.113Z,-3.36
2018-02-27T06:14:58.632Z,-3.21
2018-02-27T06:15:39.135Z,-3.25
2018-02-27T06:16:19.658Z,-3.28
2018-02-27T06:17:00.162Z,-3.33
2018-02-27T06:17:40.664Z,-3.3
2018-02-27T06:18:21.161Z,-3.45
2018-02-27T06:19:01.685Z,-3.31
2018-02-27T06:19:42.192Z,-3.27
2018-02-27T06:20:22.700Z,-3.45
2018-02-27T06:21:03.209Z,-3.48
2018-02-27T06:21:46.221Z,-3.54
2018-02-27T06:22:26.771Z,-3.54
2018-02-27T06:23:07.270Z,-3.45
2018-02-27T06:23:50.080Z,-3.49
2018-02-27T06:24:30.583Z,-3.6
2018-02-27T06:25:11.113Z,-3.6
2018-02-27T06:25:51.680Z,-3.36
2018-02-27T06:26:32.210Z,-3.45
2018-02-27T06:27:12.688Z,-3.36
2018-02-27T06:27:53.179Z,-3.41
2018-02-27T06:28:33.686Z,-3.31
2018-02-27T06:29:14.194Z,-3.24
2018-02-27T06:29:54.703Z,-3.21
2018-02-27T06:30:35.198Z,-3.17
2018-02-27T06:31:15.720Z,-3.27
2018-02-27T06:31:56.232Z,-3.14
2018-02-27T06:32:36.745Z,-3.25
2018-02-27T06:33:17.258Z,-3.24
2018-02-27T06:33:57.768Z,-3.36
2018-02-27T06:34:38.329Z,-3.28
2018-02-27T06:35:18.845Z,-3.25
2018-02-27T06:35:59.346Z,-3.45
2018-02-27T06:36:39.869Z,-3.48
2018-02-27T06:37:20.397Z,-3.27
2018-02-27T06:38:00.916Z,-3.14
2018-02-27T06:38:41.396Z,-2.96
2018-02-27T06:39:21.913Z,-2.92
2018-02-27T06:40:02.450Z,-2.88
2018-02-27T06:40:42.959Z,-2.86
2018-02-27T06:41:23.462Z,-3.15
2018-02-27T06:42:03.983Z,-3.15
2018-02-27T06:42:44.482Z,-3.14
2018-02-27T06:43:24.986Z,-3.18
2018-02-27T06:44:05.495Z,-2.97
2018-02-27T06:44:45.999Z,-2.96
2018-02-27T06:45:26.503Z,-3
2018-02-27T06:46:07.155Z,-3.03
2018-02-27T06:46:47.660Z,-2.84
2018-02-27T06:47:28.179Z,-2.67
2018-02-27T06:48:08.695Z,-2.73
2018-02-27T06:48:49.213Z,-2.73
2018-02-27T06:49:29.718Z,-2.66
2018-02-27T06:50:10.228Z,-2.63
2018-02-27T06:50:50.728Z,-2.66
2018-02-27T06:51:31.240Z,-2.7
2018-02-27T06:52:11.754Z,-2.68
2018-02-27T06:52:52.271Z,-2.68
2018-02-27T06:53:32.792Z,-2.77
2018-02-27T06:54:13.269Z,-3.02
2018-02-27T06:54:53.776Z,-2.81
2018-02-27T06:55:34.335Z,-2.96
2018-02-27T06:56:15.008Z,-2.88
2018-02-27T06:56:55.466Z,-3.06
2018-02-27T06:57:35.990Z,-2.97
2018-02-27T06:58:16.498Z,-2.88
2018-02-27T06:58:57.012Z,-3.15
2018-02-27T06:59:37.536Z,-3.21
2018-02-27T07:00:18.058Z,-3.03
2018-02-27T07:00:58.583Z,-2.86
2018-02-27T07:01:39.095Z,-2.85
2018-02-27T07:02:19.596Z,-2.94
2018-02-27T07:03:00.127Z,-3.03
2018-02-27T07:03:40.633Z,-2.99
2018-02-27T07:04:21.331Z,-2.94
2018-02-27T07:05:01.873Z,-3.02
2018-02-27T07:05:42.343Z,-3.03
2018-02-27T07:06:22.862Z,-3.09
2018-02-27T07:07:03.485Z,-3.06
2018-02-27T07:07:43.908Z,-3.12
2018-02-27T07:08:24.430Z,-3.28
2018-02-27T07:09:04.954Z,-3.31
2018-02-27T07:09:45.516Z,-3.07
2018-02-27T07:10:26.057Z,-3
2018-02-27T07:11:06.645Z,-2.67
2018-02-27T07:11:47.172Z,-2.66
2018-02-27T07:12:27.700Z,-2.67
2018-02-27T07:13:08.192Z,-2.67
2018-02-27T07:13:48.801Z,-2.6
2018-02-27T07:14:29.363Z,-2.46
2018-02-27T07:15:09.880Z,-2.46
2018-02-27T07:15:50.399Z,-2.35
2018-02-27T07:16:30.911Z,-2.37
2018-02-27T07:17:11.408Z,-2.39
2018-02-27T07:17:51.931Z,-2.42
2018-02-27T07:18:32.497Z,-2.37
2018-02-27T07:19:12.993Z,-2.3
2018-02-27T07:19:53.494Z,-2.34
2018-02-27T07:20:33.985Z,-2.53
2018-02-27T07:21:14.485Z,-2.66
2018-02-27T07:21:55.008Z,-2.67
2018-02-27T07:22:35.542Z,-2.67
2018-02-27T07:23:16.060Z,-2.58
2018-02-27T07:23:56.589Z,-2.5
2018-02-27T07:24:37.123Z,-2.42
2018-02-27T07:25:17.666Z,-1.76
2018-02-27T07:25:58.199Z,-1.82
2018-02-27T07:26:38.718Z,-1.46
2018-02-27T07:27:19.260Z,-1.4
2018-02-27T07:27:59.815Z,-0.98
2018-02-27T07:28:40.328Z,-0.64
2018-02-27T07:29:20.845Z,-0.78
2018-02-27T07:30:01.351Z,-0.95
2018-02-27T07:30:41.885Z,-1.38
2018-02-27T07:31:22.378Z,-1.69
2018-02-27T07:32:02.900Z,-1.95
2018-02-27T07:32:43.415Z,-1.97
2018-02-27T07:33:23.926Z,-1.9
2018-02-27T07:34:04.459Z,-2.09
2018-02-27T07:34:44.992Z,-1.91
2018-02-27T07:35:25.500Z,-2.29
2018-02-27T07:36:06.016Z,-2.34
2018-02-27T07:36:46.534Z,-1.76
2018-02-27T07:37:27.037Z,-1.74
2018-02-27T07:38:07.538Z,-1.72
2018-02-27T07:38:48.053Z,-1.15
2018-02-27T07:39:28.581Z,-1.34
2018-02-27T07:40:09.081Z,-1.41
2018-02-27T07:40:49.589Z,-1.69
2018-02-27T07:41:30.097Z,-1.85
2018-02-27T07:42:11.565Z,-2
2018-02-27T07:42:51.118Z,-1.95
2018-02-27T07:43:31.649Z,-2
2018-02-27T07:44:12.182Z,-2.08
2018-02-27T07:44:52.705Z,-2.12
2018-02-27T07:45:33.217Z,-2.4
2018-02-27T07:46:13.743Z,-2.43
2018-02-27T07:46:54.276Z,-2.27
2018-02-27T07:47:34.885Z,-2.3
2018-02-27T07:48:15.411Z,-2.29
2018-02-27T07:48:55.905Z,-2.26
2018-02-27T07:49:36.415Z,-2.48
2018-02-27T07:50:16.934Z,-2.5
2018-02-27T07:50:57.446Z,-2.42
2018-02-27T07:51:37.968Z,-2.26
2018-02-27T07:52:18.475Z,-2.26
2018-02-27T07:52:58.977Z,-2.46
2018-02-27T07:53:39.501Z,-2.45
2018-02-27T07:54:20.104Z,-2.56
2018-02-27T07:55:00.613Z,-2.71
2018-02-27T07:55:41.117Z,-2.78
2018-02-27T07:56:21.634Z,-2.79
2018-02-27T07:58:36.712Z,-3.21
2018-02-27T07:59:17.277Z,-2.92
2018-02-27T07:59:57.782Z,-2.89
2018-02-27T08:00:38.300Z,-2.74
2018-02-27T08:01:18.818Z,-2.84
2018-02-27T08:01:59.376Z,-2.85
2018-02-27T08:02:39.877Z,-2.86
2018-02-27T08:03:20.437Z,-2.84
2018-02-27T08:04:00.973Z,-2.92
2018-02-27T08:04:41.485Z,-2.73
2018-02-27T08:05:22.010Z,-2.67
2018-02-27T08:06:02.528Z,-2.85
2018-02-27T08:06:43.043Z,-2.85
2018-02-27T08:07:23.569Z,-2.71
2018-02-27T08:08:04.158Z,-2.63
2018-02-27T08:08:44.696Z,-2.64
2018-02-27T08:09:25.217Z,-2.63
2018-02-27T08:10:05.775Z,-2.5
2018-02-27T08:10:46.247Z,-2.5
2018-02-27T08:11:26.747Z,-2.34
2018-02-27T08:12:07.269Z,-2.39
2018-02-27T08:12:47.783Z,-2.46
2018-02-27T08:13:28.287Z,-2.4
2018-02-27T08:14:08.798Z,-2.46
2018-02-27T08:14:49.311Z,-2.08
2018-02-27T08:15:29.788Z,-1.85
2018-02-27T08:16:10.323Z,-1.98
2018-02-27T08:16:50.802Z,-2.16
2018-02-27T08:17:31.301Z,-1.85
2018-02-27T08:18:11.825Z,-0.78
2018-02-27T08:18:52.332Z,-0.76
2018-02-27T08:19:32.855Z,-1.15
2018-02-27T08:20:13.347Z,-1.74
2018-02-27T08:20:53.879Z,-2.27
2018-02-27T08:21:34.384Z,-2.3
2018-02-27T08:22:14.895Z,-2.13
2018-02-27T08:22:55.402Z,-2.12
2018-02-27T08:23:35.908Z,-2.24
2018-02-27T08:24:16.422Z,-2.29
2018-02-27T08:24:56.942Z,-2.24
2018-02-27T08:25:37.447Z,-2.35
2018-02-27T08:26:17.960Z,-2.37
2018-02-27T08:26:58.458Z,-2.39
2018-02-27T08:27:38.965Z,-2.48
2018-02-27T08:28:19.450Z,-2.3
2018-02-27T08:28:59.972Z,-1.92
2018-02-27T08:29:40.487Z,-1.76
2018-02-27T08:30:21.034Z,-1.49
2018-02-27T08:31:01.538Z,-1.12
2018-02-27T08:31:42.090Z,-1.33
2018-02-27T08:32:23.727Z,-1.95
2018-02-27T08:33:05.528Z,-2.09
2018-02-27T08:33:46.880Z,-2.18
2018-02-27T08:34:29.463Z,-1.94
2018-02-27T08:35:09.982Z,-1.9
2018-02-27T08:35:50.485Z,-1.9
2018-02-27T08:36:31.005Z,-1.97
2018-02-27T08:37:11.506Z,-2.08
2018-02-27T08:37:52.017Z,-2.23
2018-02-27T08:38:32.519Z,-2.35
2018-02-27T08:39:13.030Z,-2.32
2018-02-27T08:39:53.525Z,-2.49
2018-02-27T08:40:34.024Z,-2.46
2018-02-27T08:41:14.531Z,-2.3
2018-02-27T08:41:55.038Z,-2.2
2018-02-27T08:42:35.551Z,-2.32
2018-02-27T08:43:16.067Z,-2.42
2018-02-27T08:43:56.598Z,-2.37
2018-02-27T08:44:37.116Z,-2.26
2018-02-27T08:45:17.626Z,-2.15
2018-02-27T08:45:58.178Z,-2.13
2018-02-27T08:46:38.689Z,-1.94
2018-02-27T08:47:19.210Z,-1.73